sensor_id;sensor_type;location;lat;lon;timestamp;P1;durP1;ratioP1;P2;durP2;ratioP2
64959;SDS011;51487;52.266;10.542;2023-02-28T00:00:34;8.45;;;5.68;;
64959;SDS011;51487;52.266;10.542;2023-02-28T00:03:01;7.18;;;5.10;;
64959;SDS011;51487;52.266;10.542;2023-02-28T00:05:27;7.45;;;4.80;;
64959;SDS011;51487;52.266;10.542;2023-02-28T00:07:54;7.05;;;4.78;;
64959;SDS011;51487;52.266;10.542;2023-02-28T00:10:22;8.73;;;5.63;;
64959;SDS011;51487;52.266;10.542;2023-02-28T00:12:55;8.48;;;5.47;;
64959;SDS011;51487;52.266;10.542;2023-02-28T00:15:26;9.07;;;5.68;;
64959;SDS011;51487;52.266;10.542;2023-02-28T00:17:52;6.72;;;5.05;;
64959;SDS011;51487;52.266;10.542;2023-02-28T00:20:17;9.25;;;5.53;;
64959;SDS011;51487;52.266;10.542;2023-02-28T00:22:45;6.93;;;5.10;;
64959;SDS011;51487;52.266;10.542;2023-02-28T00:25:18;7.18;;;5.07;;
64959;SDS011;51487;52.266;10.542;2023-02-28T00:27:47;7.35;;;5.00;;
64959;SDS011;51487;52.266;10.542;2023-02-28T00:30:14;7.65;;;5.10;;
64959;SDS011;51487;52.266;10.542;2023-02-28T00:32:43;8.48;;;5.57;;
64959;SDS011;51487;52.266;10.542;2023-02-28T00:35:09;8.20;;;5.82;;
64959;SDS011;51487;52.266;10.542;2023-02-28T00:37:36;8.68;;;5.70;;
64959;SDS011;51487;52.266;10.542;2023-02-28T00:40:02;8.30;;;5.55;;
64959;SDS011;51487;52.266;10.542;2023-02-28T00:42:30;7.93;;;4.85;;
64959;SDS011;51487;52.266;10.542;2023-02-28T00:44:56;7.78;;;5.10;;
64959;SDS011;51487;52.266;10.542;2023-02-28T00:47:22;7.93;;;5.43;;
64959;SDS011;51487;52.266;10.542;2023-02-28T00:49:47;7.70;;;4.88;;
64959;SDS011;51487;52.266;10.542;2023-02-28T00:52:13;8.15;;;5.15;;
64959;SDS011;51487;52.266;10.542;2023-02-28T00:54:39;7.93;;;5.18;;
64959;SDS011;51487;52.266;10.542;2023-02-28T00:57:04;6.07;;;5.00;;
64959;SDS011;51487;52.266;10.542;2023-02-28T00:59:30;8.48;;;5.22;;
64959;SDS011;51487;52.266;10.542;2023-02-28T01:01:55;9.35;;;5.57;;
64959;SDS011;51487;52.266;10.542;2023-02-28T01:04:21;10.18;;;5.25;;
64959;SDS011;51487;52.266;10.542;2023-02-28T01:06:46;7.22;;;5.05;;
64959;SDS011;51487;52.266;10.542;2023-02-28T01:09:12;6.40;;;4.88;;
64959;SDS011;51487;52.266;10.542;2023-02-28T01:11:38;5.80;;;4.40;;
64959;SDS011;51487;52.266;10.542;2023-02-28T01:14:06;7.40;;;4.88;;
64959;SDS011;51487;52.266;10.542;2023-02-28T01:16:32;5.60;;;4.50;;
64959;SDS011;51487;52.266;10.542;2023-02-28T01:18:57;9.32;;;5.10;;
64959;SDS011;51487;52.266;10.542;2023-02-28T01:21:24;7.28;;;5.70;;
64959;SDS011;51487;52.266;10.542;2023-02-28T01:23:50;9.73;;;5.32;;
64959;SDS011;51487;52.266;10.542;2023-02-28T01:26:17;7.75;;;4.93;;
64959;SDS011;51487;52.266;10.542;2023-02-28T01:28:46;9.60;;;5.22;;
64959;SDS011;51487;52.266;10.542;2023-02-28T01:31:12;7.50;;;5.00;;
64959;SDS011;51487;52.266;10.542;2023-02-28T01:33:39;6.60;;;4.68;;
64959;SDS011;51487;52.266;10.542;2023-02-28T01:36:06;8.52;;;5.10;;
64959;SDS011;51487;52.266;10.542;2023-02-28T01:38:38;9.43;;;5.70;;
64959;SDS011;51487;52.266;10.542;2023-02-28T01:41:05;5.65;;;4.65;;
64959;SDS011;51487;52.266;10.542;2023-02-28T01:46:09;6.78;;;5.00;;
64959;SDS011;51487;52.266;10.542;2023-02-28T01:48:37;8.40;;;5.57;;
64959;SDS011;51487;52.266;10.542;2023-02-28T01:51:20;8.68;;;4.60;;
64959;SDS011;51487;52.266;10.542;2023-02-28T01:54:03;6.53;;;5.07;;
64959;SDS011;51487;52.266;10.542;2023-02-28T01:56:38;8.02;;;5.13;;
64959;SDS011;51487;52.266;10.542;2023-02-28T01:59:17;7.10;;;5.15;;
64959;SDS011;51487;52.266;10.542;2023-02-28T02:01:54;8.20;;;4.32;;
64959;SDS011;51487;52.266;10.542;2023-02-28T02:04:21;6.75;;;4.05;;
64959;SDS011;51487;52.266;10.542;2023-02-28T02:06:52;7.45;;;4.72;;
64959;SDS011;51487;52.266;10.542;2023-02-28T02:09:17;7.20;;;4.80;;
64959;SDS011;51487;52.266;10.542;2023-02-28T02:11:43;10.38;;;5.35;;
64959;SDS011;51487;52.266;10.542;2023-02-28T02:17:10;6.93;;;4.60;;
64959;SDS011;51487;52.266;10.542;2023-02-28T02:20:13;8.43;;;5.45;;
64959;SDS011;51487;52.266;10.542;2023-02-28T02:25:45;8.35;;;4.80;;
64959;SDS011;51487;52.266;10.542;2023-02-28T02:40:19;6.88;;;4.10;;
64959;SDS011;51487;52.266;10.542;2023-02-28T02:42:54;6.00;;;4.60;;
64959;SDS011;51487;52.266;10.542;2023-02-28T02:45:49;6.43;;;4.22;;
64959;SDS011;51487;52.266;10.542;2023-02-28T02:48:38;6.32;;;3.90;;
64959;SDS011;51487;52.266;10.542;2023-02-28T02:51:10;6.38;;;4.43;;
64959;SDS011;51487;52.266;10.542;2023-02-28T02:53:49;5.55;;;4.20;;
64959;SDS011;51487;52.266;10.542;2023-02-28T02:56:23;9.32;;;4.85;;
64959;SDS011;51487;52.266;10.542;2023-02-28T02:58:54;6.55;;;4.85;;
64959;SDS011;51487;52.266;10.542;2023-02-28T03:04:03;5.53;;;4.47;;
64959;SDS011;51487;52.266;10.542;2023-02-28T03:06:52;5.25;;;4.30;;
64959;SDS011;51487;52.266;10.542;2023-02-28T03:09:20;5.55;;;4.20;;
64959;SDS011;51487;52.266;10.542;2023-02-28T03:11:51;5.38;;;4.50;;
64959;SDS011;51487;52.266;10.542;2023-02-28T03:20:54;5.20;;;4.30;;
64959;SDS011;51487;52.266;10.542;2023-02-28T03:23:23;7.13;;;3.95;;
64959;SDS011;51487;52.266;10.542;2023-02-28T03:26:08;4.80;;;3.92;;
64959;SDS011;51487;52.266;10.542;2023-02-28T03:37:08;6.13;;;3.60;;
64959;SDS011;51487;52.266;10.542;2023-02-28T03:39:41;5.15;;;4.22;;
64959;SDS011;51487;52.266;10.542;2023-02-28T03:42:41;5.78;;;3.92;;
64959;SDS011;51487;52.266;10.542;2023-02-28T03:45:13;6.97;;;3.30;;
64959;SDS011;51487;52.266;10.542;2023-02-28T03:47:57;4.20;;;3.35;;
64959;SDS011;51487;52.266;10.542;2023-02-28T03:50:38;5.25;;;3.58;;
64959;SDS011;51487;52.266;10.542;2023-02-28T03:53:42;5.15;;;3.70;;
64959;SDS011;51487;52.266;10.542;2023-02-28T03:56:06;5.10;;;3.33;;
64959;SDS011;51487;52.266;10.542;2023-02-28T04:01:33;4.80;;;3.25;;
64959;SDS011;51487;52.266;10.542;2023-02-28T04:04:06;4.07;;;3.00;;
64959;SDS011;51487;52.266;10.542;2023-02-28T04:06:33;6.43;;;3.20;;
64959;SDS011;51487;52.266;10.542;2023-02-28T04:09:03;4.82;;;3.33;;
64959;SDS011;51487;52.266;10.542;2023-02-28T04:14:13;4.30;;;3.10;;
64959;SDS011;51487;52.266;10.542;2023-02-28T04:16:39;5.60;;;3.50;;
64959;SDS011;51487;52.266;10.542;2023-02-28T04:19:07;6.68;;;3.00;;
64959;SDS011;51487;52.266;10.542;2023-02-28T04:21:36;4.90;;;2.58;;
64959;SDS011;51487;52.266;10.542;2023-02-28T04:24:12;4.20;;;2.65;;
64959;SDS011;51487;52.266;10.542;2023-02-28T04:26:45;4.88;;;3.03;;
64959;SDS011;51487;52.266;10.542;2023-02-28T04:29:17;4.82;;;2.97;;
64959;SDS011;51487;52.266;10.542;2023-02-28T04:31:49;5.35;;;3.10;;
64959;SDS011;51487;52.266;10.542;2023-02-28T04:34:15;4.55;;;3.30;;
64959;SDS011;51487;52.266;10.542;2023-02-28T04:36:41;3.78;;;3.17;;
64959;SDS011;51487;52.266;10.542;2023-02-28T04:39:07;4.90;;;3.45;;
64959;SDS011;51487;52.266;10.542;2023-02-28T04:41:34;5.38;;;3.42;;
64959;SDS011;51487;52.266;10.542;2023-02-28T04:44:00;4.72;;;3.60;;
64959;SDS011;51487;52.266;10.542;2023-02-28T04:46:25;4.97;;;3.45;;
64959;SDS011;51487;52.266;10.542;2023-02-28T04:48:51;3.85;;;3.08;;
64959;SDS011;51487;52.266;10.542;2023-02-28T04:51:17;5.57;;;3.47;;
64959;SDS011;51487;52.266;10.542;2023-02-28T04:53:44;4.75;;;3.85;;
64959;SDS011;51487;52.266;10.542;2023-02-28T04:56:11;5.15;;;3.35;;
64959;SDS011;51487;52.266;10.542;2023-02-28T04:58:40;6.57;;;3.85;;
64959;SDS011;51487;52.266;10.542;2023-02-28T05:01:28;6.97;;;3.85;;
64959;SDS011;51487;52.266;10.542;2023-02-28T05:03:58;4.70;;;3.65;;
64959;SDS011;51487;52.266;10.542;2023-02-28T05:06:27;4.25;;;3.50;;
64959;SDS011;51487;52.266;10.542;2023-02-28T05:08:55;5.93;;;3.50;;
64959;SDS011;51487;52.266;10.542;2023-02-28T05:11:29;5.55;;;3.67;;
64959;SDS011;51487;52.266;10.542;2023-02-28T05:14:00;6.43;;;3.40;;
64959;SDS011;51487;52.266;10.542;2023-02-28T05:16:31;4.90;;;4.20;;
64959;SDS011;51487;52.266;10.542;2023-02-28T05:18:57;5.20;;;4.10;;
64959;SDS011;51487;52.266;10.542;2023-02-28T05:21:24;5.72;;;3.90;;
64959;SDS011;51487;52.266;10.542;2023-02-28T05:23:59;4.78;;;3.80;;
64959;SDS011;51487;52.266;10.542;2023-02-28T05:26:28;5.70;;;3.67;;
64959;SDS011;51487;52.266;10.542;2023-02-28T05:28:54;4.45;;;3.47;;
64959;SDS011;51487;52.266;10.542;2023-02-28T05:31:20;5.07;;;4.00;;
64959;SDS011;51487;52.266;10.542;2023-02-28T05:33:46;6.88;;;3.97;;
64959;SDS011;51487;52.266;10.542;2023-02-28T05:36:12;6.63;;;4.10;;
64959;SDS011;51487;52.266;10.542;2023-02-28T05:38:38;5.22;;;3.65;;
64959;SDS011;51487;52.266;10.542;2023-02-28T05:41:07;7.60;;;3.88;;
64959;SDS011;51487;52.266;10.542;2023-02-28T05:43:34;6.97;;;3.80;;
64959;SDS011;51487;52.266;10.542;2023-02-28T05:46:02;6.72;;;4.00;;
64959;SDS011;51487;52.266;10.542;2023-02-28T05:48:30;6.25;;;4.38;;
64959;SDS011;51487;52.266;10.542;2023-02-28T05:50:57;7.22;;;3.63;;
64959;SDS011;51487;52.266;10.542;2023-02-28T05:53:23;7.13;;;4.30;;
64959;SDS011;51487;52.266;10.542;2023-02-28T05:55:48;5.53;;;3.97;;
64959;SDS011;51487;52.266;10.542;2023-02-28T05:58:14;6.35;;;4.30;;
64959;SDS011;51487;52.266;10.542;2023-02-28T06:00:39;6.68;;;4.63;;
64959;SDS011;51487;52.266;10.542;2023-02-28T06:03:05;6.60;;;4.38;;
64959;SDS011;51487;52.266;10.542;2023-02-28T06:05:30;5.28;;;4.10;;
64959;SDS011;51487;52.266;10.542;2023-02-28T06:07:56;5.50;;;4.38;;
64959;SDS011;51487;52.266;10.542;2023-02-28T06:10:21;6.75;;;4.18;;
64959;SDS011;51487;52.266;10.542;2023-02-28T06:12:47;6.85;;;4.53;;
64959;SDS011;51487;52.266;10.542;2023-02-28T06:15:13;6.35;;;4.60;;
64959;SDS011;51487;52.266;10.542;2023-02-28T06:17:41;7.38;;;3.95;;
64959;SDS011;51487;52.266;10.542;2023-02-28T06:20:08;4.82;;;4.18;;
64959;SDS011;51487;52.266;10.542;2023-02-28T06:22:37;5.47;;;4.60;;
64959;SDS011;51487;52.266;10.542;2023-02-28T06:25:05;6.07;;;4.13;;
64959;SDS011;51487;52.266;10.542;2023-02-28T06:27:32;6.38;;;4.85;;
64959;SDS011;51487;52.266;10.542;2023-02-28T06:29:58;11.15;;;4.40;;
64959;SDS011;51487;52.266;10.542;2023-02-28T06:32:24;9.95;;;4.10;;
64959;SDS011;51487;52.266;10.542;2023-02-28T06:34:50;5.53;;;4.20;;
64959;SDS011;51487;52.266;10.542;2023-02-28T06:37:16;7.30;;;4.40;;
64959;SDS011;51487;52.266;10.542;2023-02-28T06:39:45;5.50;;;4.00;;
64959;SDS011;51487;52.266;10.542;2023-02-28T06:42:10;7.15;;;4.20;;
64959;SDS011;51487;52.266;10.542;2023-02-28T06:44:36;6.72;;;4.32;;
64959;SDS011;51487;52.266;10.542;2023-02-28T06:47:03;5.25;;;3.90;;
64959;SDS011;51487;52.266;10.542;2023-02-28T06:49:31;6.57;;;3.95;;
64959;SDS011;51487;52.266;10.542;2023-02-28T06:51:59;5.18;;;3.53;;
64959;SDS011;51487;52.266;10.542;2023-02-28T06:54:24;6.60;;;4.50;;
64959;SDS011;51487;52.266;10.542;2023-02-28T06:56:50;5.13;;;4.03;;
64959;SDS011;51487;52.266;10.542;2023-02-28T06:59:16;5.63;;;3.83;;
64959;SDS011;51487;52.266;10.542;2023-02-28T07:01:42;4.75;;;3.60;;
64959;SDS011;51487;52.266;10.542;2023-02-28T07:04:07;3.97;;;3.50;;
64959;SDS011;51487;52.266;10.542;2023-02-28T07:06:33;5.03;;;3.50;;
64959;SDS011;51487;52.266;10.542;2023-02-28T07:08:58;5.88;;;3.53;;
64959;SDS011;51487;52.266;10.542;2023-02-28T07:11:25;5.85;;;3.72;;
64959;SDS011;51487;52.266;10.542;2023-02-28T07:13:53;6.78;;;4.13;;
64959;SDS011;51487;52.266;10.542;2023-02-28T07:16:21;6.32;;;3.55;;
64959;SDS011;51487;52.266;10.542;2023-02-28T07:18:48;7.18;;;4.07;;
64959;SDS011;51487;52.266;10.542;2023-02-28T07:21:14;6.20;;;3.50;;
64959;SDS011;51487;52.266;10.542;2023-02-28T07:23:40;4.65;;;3.70;;
64959;SDS011;51487;52.266;10.542;2023-02-28T07:26:07;5.35;;;3.60;;
64959;SDS011;51487;52.266;10.542;2023-02-28T07:28:39;3.85;;;3.50;;
64959;SDS011;51487;52.266;10.542;2023-02-28T07:31:08;6.43;;;3.40;;
64959;SDS011;51487;52.266;10.542;2023-02-28T07:33:34;4.50;;;3.40;;
64959;SDS011;51487;52.266;10.542;2023-02-28T07:36:04;4.25;;;3.10;;
64959;SDS011;51487;52.266;10.542;2023-02-28T07:38:34;4.75;;;2.85;;
64959;SDS011;51487;52.266;10.542;2023-02-28T07:41:01;3.92;;;3.20;;
64959;SDS011;51487;52.266;10.542;2023-02-28T07:43:31;5.68;;;3.20;;
64959;SDS011;51487;52.266;10.542;2023-02-28T07:46:04;6.85;;;3.30;;
64959;SDS011;51487;52.266;10.542;2023-02-28T07:48:34;4.97;;;3.22;;
64959;SDS011;51487;52.266;10.542;2023-02-28T07:51:01;4.28;;;2.90;;
64959;SDS011;51487;52.266;10.542;2023-02-28T07:53:27;4.30;;;2.92;;
64959;SDS011;51487;52.266;10.542;2023-02-28T07:55:54;6.07;;;3.05;;
64959;SDS011;51487;52.266;10.542;2023-02-28T07:58:21;4.68;;;3.30;;
64959;SDS011;51487;52.266;10.542;2023-02-28T08:00:47;3.60;;;2.83;;
64959;SDS011;51487;52.266;10.542;2023-02-28T08:03:12;4.60;;;3.17;;
64959;SDS011;51487;52.266;10.542;2023-02-28T08:05:41;6.57;;;3.05;;
64959;SDS011;51487;52.266;10.542;2023-02-28T08:08:07;4.47;;;3.30;;
64959;SDS011;51487;52.266;10.542;2023-02-28T08:10:33;3.25;;;2.92;;
64959;SDS011;51487;52.266;10.542;2023-02-28T08:12:59;3.72;;;2.90;;
64959;SDS011;51487;52.266;10.542;2023-02-28T08:15:25;4.45;;;3.38;;
64959;SDS011;51487;52.266;10.542;2023-02-28T08:17:51;6.35;;;3.45;;
64959;SDS011;51487;52.266;10.542;2023-02-28T08:20:17;4.15;;;2.95;;
64959;SDS011;51487;52.266;10.542;2023-02-28T08:22:43;4.20;;;3.08;;
64959;SDS011;51487;52.266;10.542;2023-02-28T08:25:09;6.78;;;2.90;;
64959;SDS011;51487;52.266;10.542;2023-02-28T08:27:35;4.15;;;3.13;;
64959;SDS011;51487;52.266;10.542;2023-02-28T08:30:02;7.35;;;3.22;;
64959;SDS011;51487;52.266;10.542;2023-02-28T08:32:28;4.28;;;2.90;;
64959;SDS011;51487;52.266;10.542;2023-02-28T08:34:53;4.88;;;3.20;;
64959;SDS011;51487;52.266;10.542;2023-02-28T08:37:19;5.18;;;3.30;;
64959;SDS011;51487;52.266;10.542;2023-02-28T08:39:45;5.15;;;3.30;;
64959;SDS011;51487;52.266;10.542;2023-02-28T08:42:10;5.22;;;3.47;;
64959;SDS011;51487;52.266;10.542;2023-02-28T08:44:36;4.57;;;3.17;;
64959;SDS011;51487;52.266;10.542;2023-02-28T08:47:01;4.28;;;3.35;;
64959;SDS011;51487;52.266;10.542;2023-02-28T08:49:27;4.55;;;3.10;;
64959;SDS011;51487;52.266;10.542;2023-02-28T08:51:53;5.20;;;3.28;;
64959;SDS011;51487;52.266;10.542;2023-02-28T08:54:20;6.10;;;3.60;;
64959;SDS011;51487;52.266;10.542;2023-02-28T08:56:46;4.65;;;3.00;;
64959;SDS011;51487;52.266;10.542;2023-02-28T08:59:12;5.95;;;3.00;;
64959;SDS011;51487;52.266;10.542;2023-02-28T09:01:38;5.43;;;3.28;;
64959;SDS011;51487;52.266;10.542;2023-02-28T09:04:06;7.55;;;2.90;;
64959;SDS011;51487;52.266;10.542;2023-02-28T09:06:33;4.97;;;2.97;;
64959;SDS011;51487;52.266;10.542;2023-02-28T09:08:59;3.38;;;2.75;;
64959;SDS011;51487;52.266;10.542;2023-02-28T09:11:26;7.00;;;2.80;;
64959;SDS011;51487;52.266;10.542;2023-02-28T09:13:53;5.20;;;2.83;;
64959;SDS011;51487;52.266;10.542;2023-02-28T09:16:20;5.10;;;2.92;;
64959;SDS011;51487;52.266;10.542;2023-02-28T09:18:46;7.68;;;3.53;;
64959;SDS011;51487;52.266;10.542;2023-02-28T09:21:13;4.53;;;2.85;;
64959;SDS011;51487;52.266;10.542;2023-02-28T09:23:42;4.13;;;3.00;;
64959;SDS011;51487;52.266;10.542;2023-02-28T09:26:14;5.57;;;3.28;;
64959;SDS011;51487;52.266;10.542;2023-02-28T09:28:47;4.05;;;2.78;;
64959;SDS011;51487;52.266;10.542;2023-02-28T09:31:14;3.65;;;3.00;;
64959;SDS011;51487;52.266;10.542;2023-02-28T09:33:48;4.30;;;3.10;;
64959;SDS011;51487;52.266;10.542;2023-02-28T09:36:16;5.50;;;3.15;;
64959;SDS011;51487;52.266;10.542;2023-02-28T09:38:42;6.85;;;3.20;;
64959;SDS011;51487;52.266;10.542;2023-02-28T09:41:19;4.22;;;3.70;;
64959;SDS011;51487;52.266;10.542;2023-02-28T09:43:52;4.55;;;3.10;;
64959;SDS011;51487;52.266;10.542;2023-02-28T09:46:31;5.25;;;2.97;;
64959;SDS011;51487;52.266;10.542;2023-02-28T09:49:16;4.57;;;2.80;;
64959;SDS011;51487;52.266;10.542;2023-02-28T09:51:50;5.28;;;3.03;;
64959;SDS011;51487;52.266;10.542;2023-02-28T09:54:30;3.17;;;2.63;;
64959;SDS011;51487;52.266;10.542;2023-02-28T09:59:49;3.90;;;2.90;;
64959;SDS011;51487;52.266;10.542;2023-02-28T10:02:43;3.50;;;2.58;;
64959;SDS011;51487;52.266;10.542;2023-02-28T10:05:38;4.90;;;2.63;;
64959;SDS011;51487;52.266;10.542;2023-02-28T10:08:14;3.55;;;2.30;;
64959;SDS011;51487;52.266;10.542;2023-02-28T10:11:11;4.90;;;2.70;;
64959;SDS011;51487;52.266;10.542;2023-02-28T10:13:50;6.80;;;2.80;;
64959;SDS011;51487;52.266;10.542;2023-02-28T10:19:17;5.15;;;3.35;;
64959;SDS011;51487;52.266;10.542;2023-02-28T10:24:37;6.35;;;2.72;;
64959;SDS011;51487;52.266;10.542;2023-02-28T10:27:17;3.03;;;2.25;;
64959;SDS011;51487;52.266;10.542;2023-02-28T10:29:46;12.60;;;2.67;;
64959;SDS011;51487;52.266;10.542;2023-02-28T10:32:19;4.22;;;2.47;;
64959;SDS011;51487;52.266;10.542;2023-02-28T10:34:51;3.53;;;2.38;;
64959;SDS011;51487;52.266;10.542;2023-02-28T10:37:22;3.15;;;2.28;;
64959;SDS011;51487;52.266;10.542;2023-02-28T10:39:48;5.60;;;2.65;;
64959;SDS011;51487;52.266;10.542;2023-02-28T10:42:21;3.10;;;2.25;;
64959;SDS011;51487;52.266;10.542;2023-02-28T10:48:01;3.30;;;2.15;;
64959;SDS011;51487;52.266;10.542;2023-02-28T10:58:28;4.50;;;2.40;;
64959;SDS011;51487;52.266;10.542;2023-02-28T11:01:16;4.82;;;2.47;;
64959;SDS011;51487;52.266;10.542;2023-02-28T11:04:19;4.65;;;2.20;;
64959;SDS011;51487;52.266;10.542;2023-02-28T11:07:33;1.73;;;1.63;;
64959;SDS011;51487;52.266;10.542;2023-02-28T11:09:48;2.53;;;1.90;;
64959;SDS011;51487;52.266;10.542;2023-02-28T11:12:22;2.85;;;2.03;;
64959;SDS011;51487;52.266;10.542;2023-02-28T11:15:04;2.38;;;1.98;;
64959;SDS011;51487;52.266;10.542;2023-02-28T11:17:57;3.53;;;2.10;;
64959;SDS011;51487;52.266;10.542;2023-02-28T11:20:28;3.75;;;1.90;;
64959;SDS011;51487;52.266;10.542;2023-02-28T11:22:57;2.53;;;1.92;;
64959;SDS011;51487;52.266;10.542;2023-02-28T11:25:35;4.32;;;2.15;;
64959;SDS011;51487;52.266;10.542;2023-02-28T11:28:04;10.25;;;3.15;;
64959;SDS011;51487;52.266;10.542;2023-02-28T11:30:49;7.43;;;2.50;;
64959;SDS011;51487;52.266;10.542;2023-02-28T11:33:40;3.42;;;2.28;;
64959;SDS011;51487;52.266;10.542;2023-02-28T11:36:11;2.97;;;2.35;;
64959;SDS011;51487;52.266;10.542;2023-02-28T11:38:43;5.90;;;2.38;;
64959;SDS011;51487;52.266;10.542;2023-02-28T11:41:21;4.03;;;2.40;;
64959;SDS011;51487;52.266;10.542;2023-02-28T11:46:59;2.53;;;2.33;;
64959;SDS011;51487;52.266;10.542;2023-02-28T11:52:59;5.22;;;2.38;;
64959;SDS011;51487;52.266;10.542;2023-02-28T11:59:08;2.78;;;1.90;;
64959;SDS011;51487;52.266;10.542;2023-02-28T12:07:47;2.15;;;1.95;;
64959;SDS011;51487;52.266;10.542;2023-02-28T12:10:27;4.25;;;2.10;;
64959;SDS011;51487;52.266;10.542;2023-02-28T12:22:27;2.70;;;2.40;;
64959;SDS011;51487;52.266;10.542;2023-02-28T12:27:39;2.72;;;2.33;;
64959;SDS011;51487;52.266;10.542;2023-02-28T12:32:56;3.45;;;2.33;;
64959;SDS011;51487;52.266;10.542;2023-02-28T12:35:33;3.13;;;2.30;;
64959;SDS011;51487;52.266;10.542;2023-02-28T12:38:21;3.03;;;2.17;;
64959;SDS011;51487;52.266;10.542;2023-02-28T12:40:56;4.05;;;2.50;;
64959;SDS011;51487;52.266;10.542;2023-02-28T12:43:33;4.13;;;2.30;;
64959;SDS011;51487;52.266;10.542;2023-02-28T12:49:44;2.83;;;2.30;;
64959;SDS011;51487;52.266;10.542;2023-02-28T12:51:52;4.43;;;2.20;;
64959;SDS011;51487;52.266;10.542;2023-02-28T12:57:12;2.65;;;2.10;;
64959;SDS011;51487;52.266;10.542;2023-02-28T13:05:16;2.92;;;2.00;;
64959;SDS011;51487;52.266;10.542;2023-02-28T13:08:05;3.20;;;2.17;;
64959;SDS011;51487;52.266;10.542;2023-02-28T13:10:49;3.58;;;2.20;;
64959;SDS011;51487;52.266;10.542;2023-02-28T13:13:20;2.30;;;1.95;;
64959;SDS011;51487;52.266;10.542;2023-02-28T13:21:01;2.78;;;2.20;;
64959;SDS011;51487;52.266;10.542;2023-02-28T13:26:17;4.55;;;2.40;;
64959;SDS011;51487;52.266;10.542;2023-02-28T13:31:20;3.83;;;2.25;;
64959;SDS011;51487;52.266;10.542;2023-02-28T13:36:30;3.20;;;2.10;;
64959;SDS011;51487;52.266;10.542;2023-02-28T13:38:58;2.40;;;2.20;;
64959;SDS011;51487;52.266;10.542;2023-02-28T13:41:48;3.58;;;2.28;;
64959;SDS011;51487;52.266;10.542;2023-02-28T13:51:52;4.15;;;2.20;;
64959;SDS011;51487;52.266;10.542;2023-02-28T14:09:02;3.30;;;2.38;;
64959;SDS011;51487;52.266;10.542;2023-02-28T14:11:57;2.83;;;2.25;;
64959;SDS011;51487;52.266;10.542;2023-02-28T14:15:01;3.65;;;2.35;;
64959;SDS011;51487;52.266;10.542;2023-02-28T14:17:30;5.20;;;2.17;;
64959;SDS011;51487;52.266;10.542;2023-02-28T14:19:57;2.60;;;2.03;;
64959;SDS011;51487;52.266;10.542;2023-02-28T14:31:24;2.53;;;2.33;;
64959;SDS011;51487;52.266;10.542;2023-02-28T14:37:36;2.78;;;2.30;;
64959;SDS011;51487;52.266;10.542;2023-02-28T14:40:13;3.35;;;2.40;;
64959;SDS011;51487;52.266;10.542;2023-02-28T14:42:48;4.45;;;2.72;;
64959;SDS011;51487;52.266;10.542;2023-02-28T14:45:37;4.03;;;2.63;;
64959;SDS011;51487;52.266;10.542;2023-02-28T14:48:02;2.55;;;2.10;;
64959;SDS011;51487;52.266;10.542;2023-02-28T14:50:35;3.58;;;2.60;;
64959;SDS011;51487;52.266;10.542;2023-02-28T14:53:02;4.78;;;2.58;;
64959;SDS011;51487;52.266;10.542;2023-02-28T14:55:32;4.15;;;2.80;;
64959;SDS011;51487;52.266;10.542;2023-02-28T14:58:01;3.40;;;2.70;;
64959;SDS011;51487;52.266;10.542;2023-02-28T15:00:46;4.05;;;2.38;;
64959;SDS011;51487;52.266;10.542;2023-02-28T15:03:21;4.32;;;2.42;;
64959;SDS011;51487;52.266;10.542;2023-02-28T15:06:04;3.42;;;2.50;;
64959;SDS011;51487;52.266;10.542;2023-02-28T15:08:38;3.50;;;2.65;;
64959;SDS011;51487;52.266;10.542;2023-02-28T15:21:51;4.88;;;2.60;;
64959;SDS011;51487;52.266;10.542;2023-02-28T15:24:39;3.80;;;2.60;;
64959;SDS011;51487;52.266;10.542;2023-02-28T15:27:12;3.97;;;2.60;;
64959;SDS011;51487;52.266;10.542;2023-02-28T15:29:47;3.45;;;2.53;;
64959;SDS011;51487;52.266;10.542;2023-02-28T15:32:33;3.42;;;2.50;;
64959;SDS011;51487;52.266;10.542;2023-02-28T15:35:18;7.30;;;2.75;;
64959;SDS011;51487;52.266;10.542;2023-02-28T15:37:54;3.22;;;2.28;;
64959;SDS011;51487;52.266;10.542;2023-02-28T15:42:59;4.38;;;2.65;;
64959;SDS011;51487;52.266;10.542;2023-02-28T15:45:37;3.58;;;2.65;;
64959;SDS011;51487;52.266;10.542;2023-02-28T15:48:14;4.45;;;2.70;;
64959;SDS011;51487;52.266;10.542;2023-02-28T15:50:52;4.28;;;3.05;;
64959;SDS011;51487;52.266;10.542;2023-02-28T15:53:28;4.45;;;2.75;;
64959;SDS011;51487;52.266;10.542;2023-02-28T15:56:02;5.70;;;2.83;;
64959;SDS011;51487;52.266;10.542;2023-02-28T15:58:34;4.20;;;2.70;;
64959;SDS011;51487;52.266;10.542;2023-02-28T16:04:04;4.85;;;3.05;;
64959;SDS011;51487;52.266;10.542;2023-02-28T16:09:25;3.25;;;2.67;;
64959;SDS011;51487;52.266;10.542;2023-02-28T16:11:53;3.45;;;2.40;;
64959;SDS011;51487;52.266;10.542;2023-02-28T16:14:24;4.45;;;2.50;;
64959;SDS011;51487;52.266;10.542;2023-02-28T16:16:56;6.15;;;2.70;;
64959;SDS011;51487;52.266;10.542;2023-02-28T16:19:29;3.38;;;2.40;;
64959;SDS011;51487;52.266;10.542;2023-02-28T16:21:55;3.85;;;2.95;;
64959;SDS011;51487;52.266;10.542;2023-02-28T16:24:22;2.88;;;2.55;;
64959;SDS011;51487;52.266;10.542;2023-02-28T16:26:48;4.82;;;2.80;;
64959;SDS011;51487;52.266;10.542;2023-02-28T16:29:27;4.00;;;2.47;;
64959;SDS011;51487;52.266;10.542;2023-02-28T16:31:57;4.55;;;2.60;;
64959;SDS011;51487;52.266;10.542;2023-02-28T16:34:24;4.82;;;2.55;;
64959;SDS011;51487;52.266;10.542;2023-02-28T16:36:50;4.55;;;2.60;;
64959;SDS011;51487;52.266;10.542;2023-02-28T16:39:16;4.00;;;2.53;;
64959;SDS011;51487;52.266;10.542;2023-02-28T16:41:43;5.75;;;2.70;;
64959;SDS011;51487;52.266;10.542;2023-02-28T16:44:12;5.72;;;2.63;;
64959;SDS011;51487;52.266;10.542;2023-02-28T16:46:53;6.22;;;2.83;;
64959;SDS011;51487;52.266;10.542;2023-02-28T16:49:19;3.92;;;3.10;;
64959;SDS011;51487;52.266;10.542;2023-02-28T16:51:45;3.92;;;2.88;;
64959;SDS011;51487;52.266;10.542;2023-02-28T16:54:10;4.30;;;2.92;;
64959;SDS011;51487;52.266;10.542;2023-02-28T16:56:35;5.13;;;2.70;;
64959;SDS011;51487;52.266;10.542;2023-02-28T16:59:07;4.35;;;3.08;;
64959;SDS011;51487;52.266;10.542;2023-02-28T17:01:35;5.32;;;3.42;;
64959;SDS011;51487;52.266;10.542;2023-02-28T17:04:00;7.97;;;3.85;;
64959;SDS011;51487;52.266;10.542;2023-02-28T17:06:27;5.10;;;3.28;;
64959;SDS011;51487;52.266;10.542;2023-02-28T17:08:54;4.47;;;3.30;;
64959;SDS011;51487;52.266;10.542;2023-02-28T17:11:22;6.55;;;3.75;;
64959;SDS011;51487;52.266;10.542;2023-02-28T17:13:49;5.10;;;3.08;;
64959;SDS011;51487;52.266;10.542;2023-02-28T17:16:26;6.40;;;3.15;;
64959;SDS011;51487;52.266;10.542;2023-02-28T17:18:56;4.07;;;2.97;;
64959;SDS011;51487;52.266;10.542;2023-02-28T17:21:26;4.60;;;2.92;;
64959;SDS011;51487;52.266;10.542;2023-02-28T17:23:53;4.53;;;2.92;;
64959;SDS011;51487;52.266;10.542;2023-02-28T17:26:19;5.93;;;3.05;;
64959;SDS011;51487;52.266;10.542;2023-02-28T17:28:47;5.07;;;2.80;;
64959;SDS011;51487;52.266;10.542;2023-02-28T17:31:13;3.90;;;2.92;;
64959;SDS011;51487;52.266;10.542;2023-02-28T17:33:40;3.42;;;2.92;;
64959;SDS011;51487;52.266;10.542;2023-02-28T17:36:06;6.90;;;3.13;;
64959;SDS011;51487;52.266;10.542;2023-02-28T17:38:35;5.40;;;3.03;;
64959;SDS011;51487;52.266;10.542;2023-02-28T17:41:00;5.05;;;2.90;;
64959;SDS011;51487;52.266;10.542;2023-02-28T17:43:26;7.82;;;3.13;;
64959;SDS011;51487;52.266;10.542;2023-02-28T17:45:53;4.75;;;3.05;;
64959;SDS011;51487;52.266;10.542;2023-02-28T17:48:19;4.43;;;3.00;;